sensor_id;sensor_type;location;lat;lon;timestamp;P1;durP1;ratioP1;P2;durP2;ratioP2
29168;SDS011;16219;42.864;23.360;2022-09-13T00:02:00;1.50;;;1.40;;
29168;SDS011;16219;42.864;23.360;2022-09-13T00:04:27;1.42;;;1.30;;
29168;SDS011;16219;42.864;23.360;2022-09-13T00:06:54;1.15;;;1.05;;
29168;SDS011;16219;42.864;23.360;2022-09-13T00:09:21;2.33;;;1.50;;
29168;SDS011;16219;42.864;23.360;2022-09-13T00:11:48;1.25;;;0.98;;
29168;SDS011;16219;42.864;23.360;2022-09-13T00:14:18;4.13;;;1.73;;
29168;SDS011;16219;42.864;23.360;2022-09-13T00:16:45;1.17;;;1.15;;
29168;SDS011;16219;42.864;23.360;2022-09-13T00:19:12;1.00;;;1.00;;
29168;SDS011;16219;42.864;23.360;2022-09-13T00:21:39;0.88;;;0.88;;
29168;SDS011;16219;42.864;23.360;2022-09-13T00:24:07;1.35;;;1.23;;
29168;SDS011;16219;42.864;23.360;2022-09-13T00:26:34;1.10;;;1.02;;
29168;SDS011;16219;42.864;23.360;2022-09-13T00:29:01;1.42;;;1.33;;
29168;SDS011;16219;42.864;23.360;2022-09-13T00:31:29;1.02;;;0.90;;
29168;SDS011;16219;42.864;23.360;2022-09-13T00:33:57;1.60;;;1.42;;
29168;SDS011;16219;42.864;23.360;2022-09-13T00:36:24;1.58;;;1.40;;
29168;SDS011;16219;42.864;23.360;2022-09-13T00:38:51;0.90;;;0.90;;
29168;SDS011;16219;42.864;23.360;2022-09-13T00:41:19;1.52;;;1.42;;
29168;SDS011;16219;42.864;23.360;2022-09-13T00:43:47;1.50;;;1.40;;
29168;SDS011;16219;42.864;23.360;2022-09-13T00:46:18;3.17;;;0.88;;
29168;SDS011;16219;42.864;23.360;2022-09-13T00:48:52;1.00;;;1.00;;
29168;SDS011;16219;42.864;23.360;2022-09-13T00:51:22;2.58;;;1.63;;
29168;SDS011;16219;42.864;23.360;2022-09-13T00:53:51;1.20;;;1.13;;
29168;SDS011;16219;42.864;23.360;2022-09-13T00:56:21;1.73;;;1.35;;
29168;SDS011;16219;42.864;23.360;2022-09-13T00:58:54;1.35;;;1.25;;
29168;SDS011;16219;42.864;23.360;2022-09-13T01:01:25;1.35;;;1.25;;
29168;SDS011;16219;42.864;23.360;2022-09-13T01:03:59;8.68;;;1.48;;
29168;SDS011;16219;42.864;23.360;2022-09-13T01:06:29;0.93;;;0.93;;
29168;SDS011;16219;42.864;23.360;2022-09-13T01:08:58;3.22;;;1.55;;
29168;SDS011;16219;42.864;23.360;2022-09-13T01:11:29;1.63;;;1.10;;
29168;SDS011;16219;42.864;23.360;2022-09-13T01:14:15;0.68;;;0.68;;
29168;SDS011;16219;42.864;23.360;2022-09-13T01:16:44;1.10;;;1.08;;
29168;SDS011;16219;42.864;23.360;2022-09-13T01:19:13;1.15;;;1.08;;
29168;SDS011;16219;42.864;23.360;2022-09-13T01:24:54;0.85;;;0.85;;
29168;SDS011;16219;42.864;23.360;2022-09-13T01:27:43;1.52;;;1.42;;
29168;SDS011;16219;42.864;23.360;2022-09-13T01:30:27;0.95;;;0.95;;
29168;SDS011;16219;42.864;23.360;2022-09-13T01:36:13;1.52;;;1.40;;
29168;SDS011;16219;42.864;23.360;2022-09-13T01:39:13;2.25;;;1.10;;
29168;SDS011;16219;42.864;23.360;2022-09-13T01:41:47;2.33;;;1.35;;
29168;SDS011;16219;42.864;23.360;2022-09-13T01:44:31;0.90;;;0.90;;
29168;SDS011;16219;42.864;23.360;2022-09-13T01:47:15;1.48;;;1.38;;
29168;SDS011;16219;42.864;23.360;2022-09-13T01:49:54;1.00;;;1.00;;
29168;SDS011;16219;42.864;23.360;2022-09-13T01:52:41;0.85;;;0.85;;
29168;SDS011;16219;42.864;23.360;2022-09-13T01:55:18;0.77;;;0.77;;
29168;SDS011;16219;42.864;23.360;2022-09-13T01:57:53;1.08;;;1.08;;
29168;SDS011;16219;42.864;23.360;2022-09-13T02:00:27;1.35;;;1.25;;
29168;SDS011;16219;42.864;23.360;2022-09-13T02:03:02;1.00;;;1.00;;
29168;SDS011;16219;42.864;23.360;2022-09-13T02:05:34;2.08;;;1.88;;
29168;SDS011;16219;42.864;23.360;2022-09-13T02:08:07;10.60;;;1.10;;
29168;SDS011;16219;42.864;23.360;2022-09-13T02:10:40;1.75;;;1.10;;
29168;SDS011;16219;42.864;23.360;2022-09-13T02:13:10;1.17;;;1.13;;
29168;SDS011;16219;42.864;23.360;2022-09-13T02:15:42;1.13;;;1.02;;
29168;SDS011;16219;42.864;23.360;2022-09-13T02:18:14;0.63;;;0.63;;
29168;SDS011;16219;42.864;23.360;2022-09-13T02:20:46;1.43;;;1.07;;
29168;SDS011;16219;42.864;23.360;2022-09-13T02:23:17;3.35;;;1.10;;
29168;SDS011;16219;42.864;23.360;2022-09-13T02:25:49;1.15;;;1.05;;
29168;SDS011;16219;42.864;23.360;2022-09-13T02:28:20;1.10;;;1.00;;
29168;SDS011;16219;42.864;23.360;2022-09-13T02:30:53;1.10;;;1.00;;
29168;SDS011;16219;42.864;23.360;2022-09-13T02:33:25;1.23;;;1.20;;
29168;SDS011;16219;42.864;23.360;2022-09-13T02:35:58;2.58;;;1.50;;
29168;SDS011;16219;42.864;23.360;2022-09-13T02:38:29;11.88;;;1.30;;
29168;SDS011;16219;42.864;23.360;2022-09-13T02:40:59;1.35;;;1.25;;
29168;SDS011;16219;42.864;23.360;2022-09-13T02:43:42;0.77;;;0.77;;
29168;SDS011;16219;42.864;23.360;2022-09-13T02:46:16;1.10;;;1.00;;
29168;SDS011;16219;42.864;23.360;2022-09-13T02:48:57;1.08;;;1.02;;
29168;SDS011;16219;42.864;23.360;2022-09-13T02:51:30;1.27;;;1.23;;
29168;SDS011;16219;42.864;23.360;2022-09-13T02:54:07;1.85;;;1.25;;
29168;SDS011;16219;42.864;23.360;2022-09-13T02:56:42;1.20;;;1.20;;
29168;SDS011;16219;42.864;23.360;2022-09-13T02:59:18;0.70;;;0.70;;
29168;SDS011;16219;42.864;23.360;2022-09-13T03:01:49;1.10;;;1.00;;
29168;SDS011;16219;42.864;23.360;2022-09-13T03:04:21;1.52;;;1.42;;
29168;SDS011;16219;42.864;23.360;2022-09-13T03:06:49;0.80;;;0.80;;
29168;SDS011;16219;42.864;23.360;2022-09-13T03:09:16;0.77;;;0.77;;
29168;SDS011;16219;42.864;23.360;2022-09-13T03:14:45;1.33;;;0.93;;
29168;SDS011;16219;42.864;23.360;2022-09-13T03:17:29;0.90;;;0.90;;
29168;SDS011;16219;42.864;23.360;2022-09-13T03:20:10;1.45;;;1.35;;
29168;SDS011;16219;42.864;23.360;2022-09-13T03:25:45;1.38;;;1.25;;
29168;SDS011;16219;42.864;23.360;2022-09-13T03:28:28;1.67;;;1.58;;
29168;SDS011;16219;42.864;23.360;2022-09-13T03:31:04;0.63;;;0.63;;
29168;SDS011;16219;42.864;23.360;2022-09-13T03:33:36;1.15;;;1.05;;
29168;SDS011;16219;42.864;23.360;2022-09-13T03:36:15;1.30;;;1.20;;
29168;SDS011;16219;42.864;23.360;2022-09-13T03:38:51;1.05;;;0.95;;
29168;SDS011;16219;42.864;23.360;2022-09-13T03:41:26;1.55;;;1.38;;
29168;SDS011;16219;42.864;23.360;2022-09-13T03:43:58;6.15;;;1.33;;
29168;SDS011;16219;42.864;23.360;2022-09-13T03:46:28;1.08;;;0.98;;
29168;SDS011;16219;42.864;23.360;2022-09-13T03:48:59;1.42;;;1.33;;
29168;SDS011;16219;42.864;23.360;2022-09-13T03:51:31;1.60;;;1.40;;
29168;SDS011;16219;42.864;23.360;2022-09-13T03:54:00;0.90;;;0.90;;
29168;SDS011;16219;42.864;23.360;2022-09-13T03:56:30;0.95;;;0.95;;
29168;SDS011;16219;42.864;23.360;2022-09-13T03:58:57;1.52;;;1.20;;
29168;SDS011;16219;42.864;23.360;2022-09-13T04:01:25;1.10;;;1.02;;
29168;SDS011;16219;42.864;23.360;2022-09-13T04:03:52;0.57;;;0.57;;
29168;SDS011;16219;42.864;23.360;2022-09-13T04:06:19;0.73;;;0.73;;
29168;SDS011;16219;42.864;23.360;2022-09-13T04:08:48;2.15;;;1.30;;
29168;SDS011;16219;42.864;23.360;2022-09-13T04:11:15;1.10;;;1.08;;
29168;SDS011;16219;42.864;23.360;2022-09-13T04:13:42;1.17;;;1.15;;
29168;SDS011;16219;42.864;23.360;2022-09-13T04:16:10;3.38;;;1.40;;
29168;SDS011;16219;42.864;23.360;2022-09-13T04:18:37;1.85;;;1.38;;
29168;SDS011;16219;42.864;23.360;2022-09-13T04:21:04;1.48;;;1.35;;
29168;SDS011;16219;42.864;23.360;2022-09-13T04:23:31;0.73;;;0.73;;
29168;SDS011;16219;42.864;23.360;2022-09-13T04:26:03;1.73;;;1.63;;
29168;SDS011;16219;42.864;23.360;2022-09-13T04:28:31;1.00;;;0.50;;
29168;SDS011;16219;42.864;23.360;2022-09-13T04:30:58;1.50;;;1.40;;
29168;SDS011;16219;42.864;23.360;2022-09-13T04:33:25;1.08;;;1.05;;
29168;SDS011;16219;42.864;23.360;2022-09-13T04:35:53;1.17;;;1.15;;
29168;SDS011;16219;42.864;23.360;2022-09-13T04:38:23;2.35;;;0.98;;
29168;SDS011;16219;42.864;23.360;2022-09-13T04:40:51;1.38;;;1.27;;
29168;SDS011;16219;42.864;23.360;2022-09-13T04:43:20;9.75;;;1.88;;
29168;SDS011;16219;42.864;23.360;2022-09-13T04:45:48;2.47;;;1.75;;
29168;SDS011;16219;42.864;23.360;2022-09-13T04:48:15;8.50;;;1.90;;
29168;SDS011;16219;42.864;23.360;2022-09-13T04:50:42;1.40;;;1.30;;
29168;SDS011;16219;42.864;23.360;2022-09-13T04:53:09;1.13;;;1.10;;
29168;SDS011;16219;42.864;23.360;2022-09-13T04:55:37;1.83;;;1.35;;
29168;SDS011;16219;42.864;23.360;2022-09-13T04:58:04;2.03;;;1.77;;
29168;SDS011;16219;42.864;23.360;2022-09-13T05:00:32;2.55;;;1.73;;
29168;SDS011;16219;42.864;23.360;2022-09-13T05:02:59;1.20;;;1.10;;
29168;SDS011;16219;42.864;23.360;2022-09-13T05:05:27;7.35;;;1.85;;
29168;SDS011;16219;42.864;23.360;2022-09-13T05:07:56;3.03;;;2.10;;
29168;SDS011;16219;42.864;23.360;2022-09-13T05:10:23;4.75;;;2.03;;
29168;SDS011;16219;42.864;23.360;2022-09-13T05:12:51;1.55;;;1.45;;
29168;SDS011;16219;42.864;23.360;2022-09-13T05:15:18;2.22;;;1.95;;
29168;SDS011;16219;42.864;23.360;2022-09-13T05:17:46;1.88;;;1.77;;
29168;SDS011;16219;42.864;23.360;2022-09-13T05:20:13;1.67;;;1.58;;
29168;SDS011;16219;42.864;23.360;2022-09-13T05:22:40;1.73;;;1.63;;
29168;SDS011;16219;42.864;23.360;2022-09-13T05:25:08;1.70;;;1.60;;
29168;SDS011;16219;42.864;23.360;2022-09-13T05:27:35;1.90;;;1.80;;
29168;SDS011;16219;42.864;23.360;2022-09-13T05:30:03;2.78;;;2.15;;
29168;SDS011;16219;42.864;23.360;2022-09-13T05:32:31;1.58;;;1.48;;
29168;SDS011;16219;42.864;23.360;2022-09-13T05:35:00;1.60;;;1.40;;
29168;SDS011;16219;42.864;23.360;2022-09-13T05:37:27;1.67;;;1.58;;
29168;SDS011;16219;42.864;23.360;2022-09-13T05:39:54;3.80;;;1.75;;
29168;SDS011;16219;42.864;23.360;2022-09-13T05:42:21;1.80;;;1.70;;
29168;SDS011;16219;42.864;23.360;2022-09-13T05:44:49;1.48;;;1.38;;
29168;SDS011;16219;42.864;23.360;2022-09-13T05:47:16;0.82;;;0.82;;
29168;SDS011;16219;42.864;23.360;2022-09-13T05:49:43;1.40;;;1.30;;
29168;SDS011;16219;42.864;23.360;2022-09-13T05:52:12;3.55;;;2.10;;
29168;SDS011;16219;42.864;23.360;2022-09-13T05:54:39;1.50;;;1.40;;
29168;SDS011;16219;42.864;23.360;2022-09-13T05:57:06;1.35;;;1.25;;
29168;SDS011;16219;42.864;23.360;2022-09-13T05:59:33;1.45;;;1.35;;
29168;SDS011;16219;42.864;23.360;2022-09-13T06:02:01;2.33;;;1.63;;
29168;SDS011;16219;42.864;23.360;2022-09-13T06:04:28;1.48;;;1.23;;
29168;SDS011;16219;42.864;23.360;2022-09-13T06:06:55;2.35;;;1.85;;
29168;SDS011;16219;42.864;23.360;2022-09-13T06:09:24;1.60;;;1.50;;
29168;SDS011;16219;42.864;23.360;2022-09-13T06:11:51;2.03;;;1.83;;
29168;SDS011;16219;42.864;23.360;2022-09-13T06:14:18;2.28;;;1.48;;
29168;SDS011;16219;42.864;23.360;2022-09-13T06:16:46;2.20;;;1.52;;
29168;SDS011;16219;42.864;23.360;2022-09-13T06:19:13;1.80;;;1.27;;
29168;SDS011;16219;42.864;23.360;2022-09-13T06:21:40;3.67;;;1.90;;
29168;SDS011;16219;42.864;23.360;2022-09-13T06:24:08;1.33;;;1.27;;
29168;SDS011;16219;42.864;23.360;2022-09-13T06:26:37;5.18;;;1.50;;
29168;SDS011;16219;42.864;23.360;2022-09-13T06:29:04;1.88;;;1.58;;
29168;SDS011;16219;42.864;23.360;2022-09-13T06:31:31;2.92;;;1.40;;
29168;SDS011;16219;42.864;23.360;2022-09-13T06:33:58;8.10;;;1.63;;
29168;SDS011;16219;42.864;23.360;2022-09-13T06:36:27;1.50;;;1.40;;
29168;SDS011;16219;42.864;23.360;2022-09-13T06:38:55;1.13;;;1.13;;
29168;SDS011;16219;42.864;23.360;2022-09-13T06:41:25;0.75;;;0.75;;
29168;SDS011;16219;42.864;23.360;2022-09-13T06:43:54;0.80;;;0.80;;
29168;SDS011;16219;42.864;23.360;2022-09-13T06:46:24;1.02;;;1.02;;
29168;SDS011;16219;42.864;23.360;2022-09-13T06:48:52;0.98;;;0.95;;
29168;SDS011;16219;42.864;23.360;2022-09-13T06:51:20;2.53;;;1.40;;
29168;SDS011;16219;42.864;23.360;2022-09-13T06:53:51;1.40;;;1.30;;
29168;SDS011;16219;42.864;23.360;2022-09-13T06:56:21;1.25;;;1.08;;
29168;SDS011;16219;42.864;23.360;2022-09-13T06:58:50;7.53;;;1.52;;
29168;SDS011;16219;42.864;23.360;2022-09-13T07:01:22;2.30;;;1.38;;
29168;SDS011;16219;42.864;23.360;2022-09-13T07:03:52;0.82;;;0.82;;
29168;SDS011;16219;42.864;23.360;2022-09-13T07:06:20;0.63;;;0.63;;
29168;SDS011;16219;42.864;23.360;2022-09-13T07:08:49;1.67;;;1.58;;
29168;SDS011;16219;42.864;23.360;2022-09-13T07:11:18;0.80;;;0.80;;
29168;SDS011;16219;42.864;23.360;2022-09-13T07:13:46;1.17;;;1.05;;
29168;SDS011;16219;42.864;23.360;2022-09-13T07:16:15;1.23;;;1.13;;
29168;SDS011;16219;42.864;23.360;2022-09-13T07:18:49;1.15;;;0.88;;
29168;SDS011;16219;42.864;23.360;2022-09-13T07:21:17;1.40;;;1.30;;
29168;SDS011;16219;42.864;23.360;2022-09-13T07:23:46;0.63;;;0.63;;
29168;SDS011;16219;42.864;23.360;2022-09-13T07:26:14;1.65;;;1.17;;
29168;SDS011;16219;42.864;23.360;2022-09-13T07:28:42;1.55;;;1.17;;
29168;SDS011;16219;42.864;23.360;2022-09-13T07:31:12;2.53;;;1.42;;
29168;SDS011;16219;42.864;23.360;2022-09-13T07:33:41;1.00;;;1.00;;
29168;SDS011;16219;42.864;23.360;2022-09-13T07:36:11;0.75;;;0.75;;
29168;SDS011;16219;42.864;23.360;2022-09-13T07:38:40;0.95;;;0.95;;
29168;SDS011;16219;42.864;23.360;2022-09-13T07:41:11;1.00;;;1.00;;
29168;SDS011;16219;42.864;23.360;2022-09-13T07:43:39;0.77;;;0.65;;
29168;SDS011;16219;42.864;23.360;2022-09-13T07:46:08;1.48;;;1.38;;
29168;SDS011;16219;42.864;23.360;2022-09-13T07:48:38;0.55;;;0.55;;
29168;SDS011;16219;42.864;23.360;2022-09-13T07:51:07;0.70;;;0.65;;
29168;SDS011;16219;42.864;23.360;2022-09-13T07:53:37;0.98;;;0.98;;
29168;SDS011;16219;42.864;23.360;2022-09-13T07:56:06;1.48;;;1.15;;
29168;SDS011;16219;42.864;23.360;2022-09-13T07:58:35;0.57;;;0.57;;
29168;SDS011;16219;42.864;23.360;2022-09-13T08:01:04;1.30;;;0.95;;
29168;SDS011;16219;42.864;23.360;2022-09-13T08:03:34;1.45;;;1.00;;
29168;SDS011;16219;42.864;23.360;2022-09-13T08:06:02;1.70;;;1.30;;
29168;SDS011;16219;42.864;23.360;2022-09-13T08:08:31;1.05;;;0.95;;
29168;SDS011;16219;42.864;23.360;2022-09-13T08:11:01;0.52;;;0.52;;
29168;SDS011;16219;42.864;23.360;2022-09-13T08:13:30;0.70;;;0.70;;
29168;SDS011;16219;42.864;23.360;2022-09-13T08:15:59;0.75;;;0.75;;
29168;SDS011;16219;42.864;23.360;2022-09-13T08:18:31;5.65;;;0.80;;
29168;SDS011;16219;42.864;23.360;2022-09-13T08:20:59;0.52;;;0.52;;
29168;SDS011;16219;42.864;23.360;2022-09-13T08:23:27;0.63;;;0.47;;
29168;SDS011;16219;42.864;23.360;2022-09-13T08:25:59;0.45;;;0.45;;
29168;SDS011;16219;42.864;23.360;2022-09-13T08:28:30;0.32;;;0.32;;
29168;SDS011;16219;42.864;23.360;2022-09-13T08:31:01;0.45;;;0.45;;
29168;SDS011;16219;42.864;23.360;2022-09-13T08:33:30;1.23;;;1.00;;
29168;SDS011;16219;42.864;23.360;2022-09-13T08:35:57;0.60;;;0.60;;
29168;SDS011;16219;42.864;23.360;2022-09-13T08:38:25;1.33;;;1.23;;
29168;SDS011;16219;42.864;23.360;2022-09-13T08:40:53;0.50;;;0.50;;
29168;SDS011;16219;42.864;23.360;2022-09-13T08:43:30;1.42;;;1.13;;
29168;SDS011;16219;42.864;23.360;2022-09-13T08:46:10;1.00;;;0.68;;
29168;SDS011;16219;42.864;23.360;2022-09-13T08:48:43;0.52;;;0.52;;
29168;SDS011;16219;42.864;23.360;2022-09-13T08:51:21;0.73;;;0.50;;
29168;SDS011;16219;42.864;23.360;2022-09-13T08:53:55;0.20;;;0.20;;
29168;SDS011;16219;42.864;23.360;2022-09-13T08:56:25;0.40;;;0.40;;
29168;SDS011;16219;42.864;23.360;2022-09-13T08:59:17;0.43;;;0.43;;
29168;SDS011;16219;42.864;23.360;2022-09-13T09:01:54;0.40;;;0.40;;
29168;SDS011;16219;42.864;23.360;2022-09-13T09:04:31;1.60;;;0.77;;
29168;SDS011;16219;42.864;23.360;2022-09-13T09:07:04;0.70;;;0.70;;
29168;SDS011;16219;42.864;23.360;2022-09-13T09:09:40;0.35;;;0.32;;
29168;SDS011;16219;42.864;23.360;2022-09-13T09:12:13;0.55;;;0.55;;
29168;SDS011;16219;42.864;23.360;2022-09-13T09:14:50;0.30;;;0.30;;
29168;SDS011;16219;42.864;23.360;2022-09-13T09:17:25;0.50;;;0.50;;
29168;SDS011;16219;42.864;23.360;2022-09-13T09:19:57;0.50;;;0.30;;
29168;SDS011;16219;42.864;23.360;2022-09-13T09:22:33;0.75;;;0.75;;
29168;SDS011;16219;42.864;23.360;2022-09-13T09:25:01;0.45;;;0.45;;
29168;SDS011;16219;42.864;23.360;2022-09-13T09:27:30;0.50;;;0.50;;
29168;SDS011;16219;42.864;23.360;2022-09-13T09:29:59;0.35;;;0.35;;
29168;SDS011;16219;42.864;23.360;2022-09-13T09:32:37;0.40;;;0.40;;
29168;SDS011;16219;42.864;23.360;2022-09-13T09:35:17;0.30;;;0.30;;
29168;SDS011;16219;42.864;23.360;2022-09-13T09:37:59;1.50;;;0.45;;
29168;SDS011;16219;42.864;23.360;2022-09-13T09:40:40;0.47;;;0.38;;
29168;SDS011;16219;42.864;23.360;2022-09-13T09:43:11;0.82;;;0.82;;
29168;SDS011;16219;42.864;23.360;2022-09-13T09:45:46;0.43;;;0.43;;
29168;SDS011;16219;42.864;23.360;2022-09-13T09:48:16;2.30;;;1.23;;
29168;SDS011;16219;42.864;23.360;2022-09-13T09:50:49;0.70;;;0.70;;
29168;SDS011;16219;42.864;23.360;2022-09-13T09:53:21;0.20;;;0.20;;
29168;SDS011;16219;42.864;23.360;2022-09-13T09:55:52;0.68;;;0.68;;
29168;SDS011;16219;42.864;23.360;2022-09-13T09:58:37;0.60;;;0.60;;
29168;SDS011;16219;42.864;23.360;2022-09-13T10:01:14;1.00;;;0.75;;
29168;SDS011;16219;42.864;23.360;2022-09-13T10:03:49;0.90;;;0.90;;
29168;SDS011;16219;42.864;23.360;2022-09-13T10:06:20;0.22;;;0.22;;
29168;SDS011;16219;42.864;23.360;2022-09-13T10:08:53;0.40;;;0.40;;
29168;SDS011;16219;42.864;23.360;2022-09-13T10:11:28;0.32;;;0.32;;
29168;SDS011;16219;42.864;23.360;2022-09-13T10:14:05;0.50;;;0.50;;
29168;SDS011;16219;42.864;23.360;2022-09-13T10:16:34;0.30;;;0.30;;
29168;SDS011;16219;42.864;23.360;2022-09-13T10:19:19;0.35;;;0.35;;
29168;SDS011;16219;42.864;23.360;2022-09-13T10:21:59;1.60;;;0.70;;
29168;SDS011;16219;42.864;23.360;2022-09-13T10:24:31;0.28;;;0.28;;
29168;SDS011;16219;42.864;23.360;2022-09-13T10:26:59;0.47;;;0.47;;
29168;SDS011;16219;42.864;23.360;2022-09-13T10:29:28;0.30;;;0.30;;
29168;SDS011;16219;42.864;23.360;2022-09-13T10:31:59;0.25;;;0.25;;
29168;SDS011;16219;42.864;23.360;2022-09-13T10:34:37;0.28;;;0.28;;
29168;SDS011;16219;42.864;23.360;2022-09-13T10:37:11;0.20;;;0.20;;
29168;SDS011;16219;42.864;23.360;2022-09-13T10:39:48;1.67;;;1.03;;
29168;SDS011;16219;42.864;23.360;2022-09-13T10:42:22;0.35;;;0.35;;
29168;SDS011;16219;42.864;23.360;2022-09-13T10:44:52;0.22;;;0.22;;
29168;SDS011;16219;42.864;23.360;2022-09-13T10:47:23;0.25;;;0.25;;
29168;SDS011;16219;42.864;23.360;2022-09-13T10:49:54;0.30;;;0.30;;
29168;SDS011;16219;42.864;23.360;2022-09-13T10:52:28;0.22;;;0.22;;
29168;SDS011;16219;42.864;23.360;2022-09-13T10:55:15;0.50;;;0.50;;
29168;SDS011;16219;42.864;23.360;2022-09-13T10:57:51;0.35;;;0.35;;
29168;SDS011;16219;42.864;23.360;2022-09-13T11:00:20;0.38;;;0.38;;
29168;SDS011;16219;42.864;23.360;2022-09-13T11:03:03;0.50;;;0.50;;
29168;SDS011;16219;42.864;23.360;2022-09-13T11:05:41;0.30;;;0.30;;
29168;SDS011;16219;42.864;23.360;2022-09-13T11:08:25;0.30;;;0.30;;
29168;SDS011;16219;42.864;23.360;2022-09-13T11:11:10;0.10;;;0.10;;
29168;SDS011;16219;42.864;23.360;2022-09-13T11:13:55;0.20;;;0.20;;
29168;SDS011;16219;42.864;23.360;2022-09-13T11:16:39;0.47;;;0.47;;
29168;SDS011;16219;42.864;23.360;2022-09-13T11:22:16;0.38;;;0.38;;
29168;SDS011;16219;42.864;23.360;2022-09-13T11:24:56;0.32;;;0.32;;
29168;SDS011;16219;42.864;23.360;2022-09-13T11:27:40;0.30;;;0.30;;
29168;SDS011;16219;42.864;23.360;2022-09-13T11:30:16;5.00;;;0.80;;
29168;SDS011;16219;42.864;23.360;2022-09-13T11:35:52;0.28;;;0.28;;
29168;SDS011;16219;42.864;23.360;2022-09-13T11:38:33;0.65;;;0.65;;
29168;SDS011;16219;42.864;23.360;2022-09-13T11:41:07;0.30;;;0.30;;
29168;SDS011;16219;42.864;23.360;2022-09-13T11:43:43;0.20;;;0.20;;
29168;SDS011;16219;42.864;23.360;2022-09-13T11:46:24;1.20;;;0.40;;
29168;SDS011;16219;42.864;23.360;2022-09-13T11:52:10;2.00;;;0.70;;
29168;SDS011;16219;42.864;23.360;2022-09-13T11:54:50;7.13;;;1.13;;
29168;SDS011;16219;42.864;23.360;2022-09-13T11:57:28;0.68;;;0.68;;
29168;SDS011;16219;42.864;23.360;2022-09-13T12:00:00;0.40;;;0.40;;
29168;SDS011;16219;42.864;23.360;2022-09-13T12:02:33;0.63;;;0.60;;
29168;SDS011;16219;42.864;23.360;2022-09-13T12:05:08;0.65;;;0.40;;
29168;SDS011;16219;42.864;23.360;2022-09-13T12:07:44;0.57;;;0.57;;
29168;SDS011;16219;42.864;23.360;2022-09-13T12:10:18;0.15;;;0.15;;
29168;SDS011;16219;42.864;23.360;2022-09-13T12:12:51;0.35;;;0.35;;
29168;SDS011;16219;42.864;23.360;2022-09-13T12:15:31;0.50;;;0.50;;
29168;SDS011;16219;42.864;23.360;2022-09-13T12:18:03;0.20;;;0.20;;
29168;SDS011;16219;42.864;23.360;2022-09-13T12:20:34;0.40;;;0.40;;
29168;SDS011;16219;42.864;23.360;2022-09-13T12:23:10;0.30;;;0.30;;
29168;SDS011;16219;42.864;23.360;2022-09-13T12:25:42;1.52;;;0.85;;
29168;SDS011;16219;42.864;23.360;2022-09-13T12:28:18;1.00;;;0.55;;
29168;SDS011;16219;42.864;23.360;2022-09-13T12:33:21;0.13;;;0.13;;
29168;SDS011;16219;42.864;23.360;2022-09-13T12:36:00;0.40;;;0.32;;
29168;SDS011;16219;42.864;23.360;2022-09-13T12:39:04;0.17;;;0.17;;
29168;SDS011;16219;42.864;23.360;2022-09-13T12:42:01;0.40;;;0.40;;
29168;SDS011;16219;42.864;23.360;2022-09-13T12:45:01;0.32;;;0.32;;
29168;SDS011;16219;42.864;23.360;2022-09-13T12:50:46;0.25;;;0.25;;
29168;SDS011;16219;42.864;23.360;2022-09-13T12:53:32;0.10;;;0.10;;
29168;SDS011;16219;42.864;23.360;2022-09-13T12:56:21;0.30;;;0.30;;
29168;SDS011;16219;42.864;23.360;2022-09-13T12:59:02;0.45;;;0.45;;
29168;SDS011;16219;42.864;23.360;2022-09-13T13:01:45;0.35;;;0.35;;
29168;SDS011;16219;42.864;23.360;2022-09-13T13:04:16;0.50;;;0.50;;
29168;SDS011;16219;42.864;23.360;2022-09-13T13:06:48;0.63;;;0.63;;
29168;SDS011;16219;42.864;23.360;2022-09-13T13:09:21;0.38;;;0.38;;
29168;SDS011;16219;42.864;23.360;2022-09-13T13:11:55;0.35;;;0.35;;
29168;SDS011;16219;42.864;23.360;2022-09-13T13:14:28;0.20;;;0.20;;
29168;SDS011;16219;42.864;23.360;2022-09-13T13:17:33;0.20;;;0.20;;
29168;SDS011;16219;42.864;23.360;2022-09-13T13:23:15;0.70;;;0.40;;
29168;SDS011;16219;42.864;23.360;2022-09-13T13:31:36;0.38;;;0.38;;
29168;SDS011;16219;42.864;23.360;2022-09-13T13:37:18;0.35;;;0.35;;
29168;SDS011;16219;42.864;23.360;2022-09-13T13:42:48;0.38;;;0.38;;
29168;SDS011;16219;42.864;23.360;2022-09-13T13:45:20;0.47;;;0.47;;
29168;SDS011;16219;42.864;23.360;2022-09-13T13:47:55;0.80;;;0.80;;
29168;SDS011;16219;42.864;23.360;2022-09-13T13:53:44;14.13;;;0.97;;
29168;SDS011;16219;42.864;23.360;2022-09-13T13:56:24;0.55;;;0.50;;
29168;SDS011;16219;42.864;23.360;2022-09-13T13:59:02;0.67;;;0.67;;
29168;SDS011;16219;42.864;23.360;2022-09-13T14:01:35;0.52;;;0.52;;
29168;SDS011;16219;42.864;23.360;2022-09-13T14:06:59;0.45;;;0.45;;
29168;SDS011;16219;42.864;23.360;2022-09-13T14:09:37;0.50;;;0.50;;
29168;SDS011;16219;42.864;23.360;2022-09-13T14:12:16;0.20;;;0.20;;
29168;SDS011;16219;42.864;23.360;2022-09-13T14:15:00;0.30;;;0.30;;
29168;SDS011;16219;42.864;23.360;2022-09-13T14:23:31;0.50;;;0.50;;
29168;SDS011;16219;42.864;23.360;2022-09-13T14:25:59;14.55;;;1.02;;
29168;SDS011;16219;42.864;23.360;2022-09-13T14:28:28;0.75;;;0.75;;
29168;SDS011;16219;42.864;23.360;2022-09-13T14:30:58;0.40;;;0.40;;
29168;SDS011;16219;42.864;23.360;2022-09-13T14:33:27;0.35;;;0.35;;
29168;SDS011;16219;42.864;23.360;2022-09-13T14:36:01;0.45;;;0.45;;
29168;SDS011;16219;42.864;23.360;2022-09-13T14:38:33;0.77;;;0.77;;
29168;SDS011;16219;42.864;23.360;2022-09-13T14:41:09;0.38;;;0.38;;
29168;SDS011;16219;42.864;23.360;2022-09-13T14:43:40;1.73;;;0.93;;
29168;SDS011;16219;42.864;23.360;2022-09-13T14:46:09;0.52;;;0.52;;
29168;SDS011;16219;42.864;23.360;2022-09-13T14:48:44;0.50;;;0.50;;
29168;SDS011;16219;42.864;23.360;2022-09-13T14:51:16;0.68;;;0.68;;
29168;SDS011;16219;42.864;23.360;2022-09-13T14:53:52;0.68;;;0.68;;
29168;SDS011;16219;42.864;23.360;2022-09-13T14:56:27;0.73;;;0.50;;
29168;SDS011;16219;42.864;23.360;2022-09-13T14:58:59;0.35;;;0.35;;
29168;SDS011;16219;42.864;23.360;2022-09-13T15:01:31;0.30;;;0.30;;
29168;SDS011;16219;42.864;23.360;2022-09-13T15:04:01;0.30;;;0.30;;
29168;SDS011;16219;42.864;23.360;2022-09-13T15:06:32;0.73;;;0.73;;
29168;SDS011;16219;42.864;23.360;2022-09-13T15:09:22;0.47;;;0.47;;
29168;SDS011;16219;42.864;23.360;2022-09-13T15:11:54;0.30;;;0.30;;
29168;SDS011;16219;42.864;23.360;2022-09-13T15:14:25;0.55;;;0.52;;
29168;SDS011;16219;42.864;23.360;2022-09-13T15:16:57;0.60;;;0.60;;
29168;SDS011;16219;42.864;23.360;2022-09-13T15:19:28;0.20;;;0.20;;
29168;SDS011;16219;42.864;23.360;2022-09-13T15:22:10;0.57;;;0.57;;
29168;SDS011;16219;42.864;23.360;2022-09-13T15:24:46;0.30;;;0.30;;
29168;SDS011;16219;42.864;23.360;2022-09-13T15:27:16;0.75;;;0.75;;
29168;SDS011;16219;42.864;23.360;2022-09-13T15:29:47;0.95;;;0.88;;
29168;SDS011;16219;42.864;23.360;2022-09-13T15:34:59;0.50;;;0.50;;
29168;SDS011;16219;42.864;23.360;2022-09-13T15:37:32;0.28;;;0.28;;
29168;SDS011;16219;42.864;23.360;2022-09-13T15:40:10;0.43;;;0.43;;
29168;SDS011;16219;42.864;23.360;2022-09-13T15:42:44;0.40;;;0.40;;
29168;SDS011;16219;42.864;23.360;2022-09-13T15:45:13;4.00;;;0.35;;
29168;SDS011;16219;42.864;23.360;2022-09-13T15:47:45;0.20;;;0.20;;
29168;SDS011;16219;42.864;23.360;2022-09-13T15:50:21;0.38;;;0.38;;
29168;SDS011;16219;42.864;23.360;2022-09-13T15:52:51;1.45;;;0.98;;
29168;SDS011;16219;42.864;23.360;2022-09-13T15:55:20;0.60;;;0.60;;
29168;SDS011;16219;42.864;23.360;2022-09-13T15:57:48;0.60;;;0.60;;
29168;SDS011;16219;42.864;23.360;2022-09-13T16:00:17;0.20;;;0.20;;
29168;SDS011;16219;42.864;23.360;2022-09-13T16:02:46;0.30;;;0.30;;